createdAt,value
2018-09-25T00:04:25.664Z,2.63
2018-09-25T00:09:33.598Z,1.47
2018-09-25T00:14:41.601Z,1.17
2018-09-25T00:19:49.524Z,1.23
2018-09-25T00:24:57.507Z,1.40
2018-09-25T00:30:05.252Z,1.50
2018-09-25T00:35:13.137Z,1.47
2018-09-25T00:40:20.931Z,1.80
2018-09-25T00:45:28.660Z,1.20
2018-09-25T00:50:36.345Z,1.70
2018-09-25T00:55:44.315Z,1.63
2018-09-25T01:00:52.349Z,1.37
2018-09-25T01:06:00.254Z,0.97
2018-09-25T01:11:08.023Z,1.63
2018-09-25T01:16:15.919Z,1.40
2018-09-25T01:21:23.860Z,1.50
2018-09-25T01:26:31.831Z,1.57
2018-09-25T01:31:39.773Z,1.03
2018-09-25T01:36:47.701Z,1.23
2018-09-25T01:41:55.692Z,1.13
2018-09-25T01:47:03.683Z,2.00
2018-09-25T01:52:11.567Z,1.17
2018-09-25T01:57:19.280Z,1.50
2018-09-25T02:02:27.327Z,1.30
2018-09-25T02:07:35.136Z,1.33
2018-09-25T02:12:43.019Z,1.10
2018-09-25T02:17:51.011Z,0.70
2018-09-25T02:22:58.771Z,1.07
2018-09-25T02:28:06.662Z,1.40
2018-09-25T02:33:14.481Z,2.47
2018-09-25T02:38:22.395Z,1.03
2018-09-25T02:43:30.275Z,1.60
2018-09-25T02:48:38.157Z,1.33
2018-09-25T02:53:46.111Z,1.23
2018-09-25T02:58:53.990Z,1.20
2018-09-25T03:04:01.979Z,1.60
2018-09-25T03:09:12.468Z,0.97
2018-09-25T03:14:20.290Z,1.43
2018-09-25T03:19:28.322Z,1.03
2018-09-25T03:24:36.092Z,1.30
2018-09-25T03:29:43.773Z,1.27
2018-09-25T03:34:51.716Z,1.70
2018-09-25T03:39:59.605Z,1.27
2018-09-25T03:45:07.628Z,1.20
2018-09-25T03:50:15.314Z,1.63
2018-09-25T03:55:23.087Z,1.40
2018-09-25T04:00:30.987Z,1.23
2018-09-25T04:05:38.939Z,1.20
2018-09-25T04:10:46.694Z,1.60
2018-09-25T04:15:54.670Z,1.90
2018-09-25T04:21:02.586Z,1.50
2018-09-25T04:26:10.595Z,1.20
2018-09-25T04:31:18.451Z,1.63
2018-09-25T04:36:26.134Z,1.43
2018-09-25T04:41:34.105Z,1.50
2018-09-25T04:46:42.039Z,1.47
2018-09-25T04:51:49.999Z,1.63
2018-09-25T04:56:57.780Z,1.70
2018-09-25T05:02:05.672Z,1.70
2018-09-25T05:07:13.359Z,1.77
2018-09-25T05:12:21.117Z,1.60
2018-09-25T05:17:29.004Z,1.40
2018-09-25T05:22:36.904Z,2.08
2018-09-25T05:27:44.809Z,1.90
2018-09-25T05:32:52.703Z,1.87
2018-09-25T05:38:00.618Z,2.47
2018-09-25T05:43:08.563Z,1.50
2018-09-25T05:48:16.265Z,2.43
2018-09-25T05:53:24.144Z,2.10
2018-09-25T05:58:32.128Z,2.20
2018-09-25T06:03:40.108Z,1.93
2018-09-25T06:08:48.021Z,2.60
2018-09-25T06:13:55.753Z,2.80
2018-09-25T06:19:03.723Z,3.17
2018-09-25T06:24:11.635Z,2.93
2018-09-25T06:29:19.588Z,2.60
2018-09-25T06:34:27.466Z,2.37
2018-09-25T06:39:35.373Z,2.20
2018-09-25T06:44:43.360Z,3.00
2018-09-25T06:49:51.326Z,2.23
2018-09-25T06:54:59.185Z,1.50
2018-09-25T07:00:07.019Z,2.40
2018-09-25T07:05:15.018Z,1.87
2018-09-25T07:10:23.039Z,2.70
2018-09-25T07:15:30.857Z,1.30
2018-09-25T07:20:38.612Z,1.60
2018-09-25T07:25:46.586Z,1.63
2018-09-25T07:30:54.472Z,1.50
2018-09-25T07:36:02.427Z,1.10
2018-09-25T07:41:10.254Z,1.33
2018-09-25T07:46:18.044Z,1.63
2018-09-25T07:51:25.974Z,1.70
2018-09-25T07:56:33.867Z,1.57
2018-09-25T08:01:41.818Z,1.10
2018-09-25T08:06:49.829Z,1.20
2018-09-25T08:11:57.755Z,1.77
2018-09-25T08:17:05.661Z,1.30
2018-09-25T08:22:13.568Z,1.70
2018-09-25T08:27:21.623Z,1.23
2018-09-25T08:32:29.462Z,1.30
2018-09-25T08:37:37.573Z,1.00
2018-09-25T08:42:45.555Z,1.40
2018-09-25T08:47:53.537Z,1.33
2018-09-25T08:53:01.475Z,1.70
2018-09-25T08:58:09.447Z,1.43
2018-09-25T09:03:17.423Z,0.90
2018-09-25T09:08:25.465Z,1.70
2018-09-25T09:13:33.304Z,1.30
2018-09-25T09:18:41.224Z,1.00
2018-09-25T09:23:48.883Z,0.90
2018-09-25T09:28:56.912Z,1.40
2018-09-25T09:34:04.879Z,0.80
2018-09-25T09:39:13.613Z,1.00
2018-09-25T09:44:21.368Z,1.83
2018-09-25T09:49:29.298Z,0.93
2018-09-25T09:54:37.191Z,0.77
2018-09-25T09:59:45.069Z,1.20
2018-09-25T10:04:52.960Z,1.40
2018-09-25T10:10:01.200Z,1.10
2018-09-25T10:15:09.133Z,0.97
2018-09-25T10:20:17.080Z,1.00
2018-09-25T10:25:24.810Z,1.20
2018-09-25T10:30:32.659Z,1.63
2018-09-25T10:35:40.558Z,1.70
2018-09-25T10:40:48.491Z,1.20
2018-09-25T10:45:56.391Z,1.67
2018-09-25T10:51:04.315Z,1.30
2018-09-25T10:56:12.391Z,1.20
2018-09-25T11:01:20.214Z,0.90
2018-09-25T11:06:28.086Z,1.17
2018-09-25T11:11:35.913Z,0.80
2018-09-25T11:16:43.638Z,1.47
2018-09-25T11:21:51.543Z,1.00
2018-09-25T11:26:59.494Z,0.70
2018-09-25T11:32:07.410Z,1.50
2018-09-25T11:42:36.559Z,1.40
2018-09-25T11:47:44.472Z,1.17
2018-09-25T11:52:52.456Z,0.90
2018-09-25T11:58:00.320Z,0.80
2018-09-25T12:03:08.281Z,0.80
2018-09-25T12:08:16.100Z,1.07
2018-09-25T12:13:24.016Z,0.80
2018-09-25T12:18:31.919Z,1.17
2018-09-25T12:23:39.873Z,1.10
2018-09-25T12:28:47.827Z,1.30
2018-09-25T12:33:55.623Z,1.17
2018-09-25T12:39:03.498Z,0.93
2018-09-25T12:44:11.436Z,1.00
2018-09-25T12:49:19.333Z,1.00
2018-09-25T12:54:27.199Z,1.00
2018-09-25T12:59:35.123Z,1.27
2018-09-25T13:04:43.134Z,0.87
2018-09-25T13:09:51.053Z,1.20
2018-09-25T13:14:58.922Z,1.13
2018-09-25T13:20:06.710Z,0.80
2018-09-25T13:25:14.745Z,0.93
2018-09-25T13:30:22.712Z,0.90
2018-09-25T13:35:30.615Z,1.00
2018-09-25T13:40:38.549Z,0.90
2018-09-25T13:45:46.476Z,1.30
2018-09-25T13:50:54.296Z,1.37
2018-09-25T13:56:02.223Z,1.10
2018-09-25T14:01:10.109Z,1.33
2018-09-25T14:06:18.106Z,1.03
2018-09-25T14:11:26.021Z,0.87
2018-09-25T14:16:33.697Z,0.57
2018-09-25T14:21:41.595Z,0.60
2018-09-25T14:26:49.526Z,2.87
2018-09-25T14:31:57.447Z,3.10
2018-09-25T14:37:05.426Z,1.50
2018-09-25T14:42:13.174Z,1.03
2018-09-25T14:47:21.135Z,1.07
2018-09-25T14:52:29.060Z,1.50
2018-09-25T14:57:37.090Z,0.90
2018-09-25T15:02:45.042Z,1.00
2018-09-25T15:07:53.003Z,1.10
2018-09-25T15:13:01.014Z,0.70
2018-09-25T15:18:08.941Z,1.03
2018-09-25T15:23:16.774Z,0.83
2018-09-25T15:28:24.821Z,1.10
2018-09-25T15:33:32.792Z,1.00
2018-09-25T15:38:41.245Z,0.90
2018-09-25T15:43:49.344Z,1.10
2018-09-25T15:48:57.333Z,1.30
2018-09-25T15:54:05.325Z,1.10
2018-09-25T15:59:13.360Z,1.10
2018-09-25T16:04:21.472Z,0.97
2018-09-25T16:09:29.288Z,1.27
2018-09-25T16:14:37.229Z,0.67
2018-09-25T16:19:45.172Z,0.90
2018-09-25T16:24:53.140Z,0.93
2018-09-25T16:30:01.102Z,1.27
2018-09-25T16:35:08.957Z,1.27
2018-09-25T16:40:16.901Z,1.20
2018-09-25T16:45:24.899Z,1.57
2018-09-25T16:50:32.668Z,0.97
2018-09-25T16:55:40.638Z,1.70
2018-09-25T17:00:48.558Z,0.93
2018-09-25T17:05:56.610Z,1.20
2018-09-25T17:11:04.639Z,0.70
2018-09-25T17:16:12.610Z,0.87
2018-09-25T17:21:20.528Z,1.23
2018-09-25T17:26:28.896Z,0.97
2018-09-25T17:31:36.861Z,0.90
2018-09-25T17:36:44.853Z,0.70
2018-09-25T17:41:52.912Z,1.00
2018-09-25T17:47:00.801Z,1.20
2018-09-25T17:52:08.690Z,1.50
2018-09-25T17:57:16.668Z,1.43
2018-09-25T18:02:24.451Z,1.10
2018-09-25T18:07:32.404Z,1.50
2018-09-25T18:12:40.403Z,1.20
2018-09-25T18:17:48.276Z,1.63
2018-09-25T18:22:56.284Z,1.37
2018-09-25T18:28:04.290Z,1.60
2018-09-25T18:33:12.084Z,1.87
2018-09-25T18:38:19.995Z,1.70
2018-09-25T18:43:28.048Z,3.00
2018-09-25T18:48:36.243Z,2.90
2018-09-25T18:53:44.383Z,2.87
2018-09-25T18:58:52.273Z,3.13
2018-09-25T19:04:00.401Z,1.77
2018-09-25T19:09:08.274Z,1.23
2018-09-25T19:14:16.189Z,1.93
2018-09-25T19:19:24.141Z,2.10
2018-09-25T19:24:32.063Z,1.53
2018-09-25T19:29:40.112Z,2.33
2018-09-25T19:34:48.128Z,1.90
2018-09-25T19:39:55.892Z,2.00
2018-09-25T19:45:03.861Z,2.70
2018-09-25T19:50:11.839Z,2.30
2018-09-25T19:55:19.672Z,2.63
2018-09-25T20:00:27.705Z,2.30
2018-09-25T20:05:35.621Z,2.20
2018-09-25T20:10:43.597Z,2.50
2018-09-25T20:15:51.483Z,3.20
2018-09-25T20:20:59.423Z,2.20
2018-09-25T20:26:07.343Z,2.47
2018-09-25T20:31:15.396Z,3.70
2018-09-25T20:36:23.135Z,3.83
2018-09-25T20:41:30.887Z,2.37
2018-09-25T20:46:38.781Z,2.43
2018-09-25T20:51:46.650Z,2.40
2018-09-25T20:56:54.762Z,1.20
2018-09-25T21:02:02.764Z,1.80
2018-09-25T21:07:10.760Z,1.73
2018-09-25T21:12:19.045Z,1.10
2018-09-25T21:17:26.949Z,1.33
2018-09-25T21:22:34.964Z,1.93
2018-09-25T21:27:42.732Z,1.40
2018-09-25T21:32:50.643Z,1.40
2018-09-25T21:37:58.351Z,1.47
2018-09-25T21:43:06.224Z,1.37
2018-09-25T21:48:14.091Z,1.60
2018-09-25T21:53:21.921Z,1.10
2018-09-25T21:58:29.921Z,1.47
2018-09-25T22:03:37.796Z,1.37
2018-09-25T22:08:45.757Z,1.43
2018-09-25T22:13:53.707Z,2.20
2018-09-25T22:19:01.483Z,1.60
2018-09-25T22:24:09.405Z,2.10
2018-09-25T22:29:17.325Z,2.00
2018-09-25T22:34:25.325Z,2.50
2018-09-25T22:39:33.106Z,2.77
2018-09-25T22:44:41.048Z,2.70
2018-09-25T22:49:49.067Z,2.65
2018-09-25T22:54:56.777Z,2.10
2018-09-25T23:00:04.681Z,2.20
2018-09-25T23:05:12.604Z,3.20
2018-09-25T23:10:20.495Z,3.40
2018-09-25T23:15:28.715Z,4.30
2018-09-25T23:20:36.708Z,3.13
2018-09-25T23:25:44.687Z,3.00
2018-09-25T23:30:52.599Z,3.43
2018-09-25T23:36:00.494Z,3.00
2018-09-25T23:41:13.920Z,3.33
2018-09-25T23:46:21.814Z,2.97
2018-09-25T23:51:31.861Z,3.60
2018-09-25T23:56:38.963Z,4.60
